createdAt,value
2019-05-14T00:02:02.802Z,53.47
2019-05-14T00:04:06.407Z,53.58
2019-05-14T00:06:11.461Z,53.72
2019-05-14T00:08:17.628Z,53.92
2019-05-14T00:10:21.950Z,53.95
2019-05-14T00:12:33.543Z,53.92
2019-05-14T00:14:40.377Z,53.95
2019-05-14T00:16:43.580Z,53.95
2019-05-14T00:18:47.554Z,54.06
2019-05-14T00:20:51.881Z,54.00
2019-05-14T00:22:55.916Z,53.91
2019-05-14T00:25:01.140Z,54.06
2019-05-14T00:27:07.027Z,54.32
2019-05-14T00:29:11.560Z,54.53
2019-05-14T00:31:15.921Z,54.59
2019-05-14T00:33:22.585Z,54.68
2019-05-14T00:35:26.586Z,54.82
2019-05-14T00:37:33.931Z,54.82
2019-05-14T00:39:41.349Z,54.90
2019-05-14T00:41:46.137Z,55.27
2019-05-14T00:43:51.356Z,55.47
2019-05-14T00:45:55.520Z,55.90
2019-05-14T00:48:08.300Z,56.04
2019-05-14T00:50:12.912Z,56.26
2019-05-14T00:52:17.265Z,56.38
2019-05-14T00:54:21.662Z,56.63
2019-05-14T00:56:25.794Z,56.42
2019-05-14T00:58:31.005Z,56.30
2019-05-14T01:00:35.431Z,56.22
2019-05-14T01:02:41.547Z,56.37
2019-05-14T01:04:45.145Z,56.21
2019-05-14T01:06:51.108Z,56.17
2019-05-14T01:08:56.325Z,56.21
2019-05-14T01:11:01.625Z,56.37
2019-05-14T01:13:05.982Z,56.49
2019-05-14T01:15:14.227Z,56.42
2019-05-14T01:17:19.130Z,56.44
2019-05-14T01:19:23.242Z,56.49
2019-05-14T01:21:28.296Z,56.60
2019-05-14T01:23:32.487Z,56.55
2019-05-14T01:25:36.429Z,56.42
2019-05-14T01:27:41.329Z,56.33
2019-05-14T01:29:45.378Z,56.52
2019-05-14T01:31:51.877Z,56.72
2019-05-14T01:33:55.345Z,57.06
2019-05-14T01:36:01.801Z,57.17
2019-05-14T01:38:05.106Z,57.53
2019-05-14T01:40:11.441Z,57.57
2019-05-14T01:42:14.987Z,57.54
2019-05-14T01:44:21.196Z,57.63
2019-05-14T01:46:28.618Z,57.81
2019-05-14T01:48:32.659Z,58.04
2019-05-14T01:50:36.701Z,58.43
2019-05-14T01:52:41.581Z,58.37
2019-05-14T01:54:45.763Z,58.38
2019-05-14T01:56:55.606Z,58.52
2019-05-14T01:59:01.729Z,58.50
2019-05-14T02:01:05.420Z,58.37
2019-05-14T02:03:11.987Z,58.47
2019-05-14T02:05:15.429Z,58.72
2019-05-14T02:07:21.920Z,59.35
2019-05-14T02:09:25.211Z,59.43
2019-05-14T02:11:32.084Z,59.54
2019-05-14T02:13:35.851Z,59.64
2019-05-14T02:15:42.898Z,59.70
2019-05-14T02:17:45.714Z,59.70
2019-05-14T02:19:51.491Z,59.60
2019-05-14T02:21:56.825Z,59.77
2019-05-14T02:24:02.051Z,59.67
2019-05-14T02:26:06.252Z,59.66
2019-05-14T02:28:11.577Z,59.64
2019-05-14T02:30:19.158Z,59.72
2019-05-14T02:32:21.596Z,59.46
2019-05-14T02:34:25.639Z,59.29
2019-05-14T02:36:30.935Z,59.24
2019-05-14T02:38:35.010Z,59.14
2019-05-14T02:40:42.265Z,59.09
2019-05-14T02:42:49.461Z,59.12
2019-05-14T02:44:52.419Z,59.21
2019-05-14T02:46:59.072Z,59.34
2019-05-14T02:49:02.181Z,59.58
2019-05-14T02:51:06.344Z,59.63
2019-05-14T02:53:10.542Z,59.64
2019-05-14T02:55:14.863Z,59.59
2019-05-14T02:57:20.109Z,59.92
2019-05-14T02:59:24.139Z,59.78
2019-05-14T03:01:30.180Z,59.71
2019-05-14T03:03:35.455Z,59.72
2019-05-14T03:05:45.210Z,59.62
2019-05-14T03:07:50.163Z,59.78
2019-05-14T03:09:54.257Z,59.71
2019-05-14T03:11:59.487Z,59.86
2019-05-14T03:14:03.965Z,60.00
2019-05-14T03:16:22.226Z,60.08
2019-05-14T03:18:13.695Z,60.18
2019-05-14T03:20:19.700Z,60.26
2019-05-14T03:22:28.497Z,60.45
2019-05-14T03:24:29.775Z,60.54
2019-05-14T03:26:33.908Z,60.76
2019-05-14T03:28:39.943Z,60.87
2019-05-14T03:30:44.612Z,60.92
2019-05-14T03:32:52.708Z,61.00
2019-05-14T03:34:55.586Z,60.97
2019-05-14T03:37:03.325Z,60.97
2019-05-14T03:39:10.240Z,60.94
2019-05-14T03:41:14.227Z,61.11
2019-05-14T03:43:20.065Z,61.03
2019-05-14T03:45:29.850Z,60.83
2019-05-14T03:47:33.042Z,60.85
2019-05-14T03:49:39.789Z,61.02
2019-05-14T03:51:43.741Z,61.20
2019-05-14T03:53:57.231Z,61.50
2019-05-14T03:55:53.898Z,61.53
2019-05-14T03:57:59.480Z,61.67
2019-05-14T04:00:03.950Z,61.63
2019-05-14T04:02:10.006Z,61.60
2019-05-14T04:04:14.368Z,61.68
2019-05-14T04:06:19.536Z,61.78
2019-05-14T04:08:29.056Z,61.72
2019-05-14T04:10:32.655Z,61.69
2019-05-14T04:12:40.335Z,61.75
2019-05-14T04:14:49.965Z,61.93
2019-05-14T04:17:05.186Z,61.93
2019-05-14T04:19:03.276Z,62.02
2019-05-14T04:21:10.013Z,62.01
2019-05-14T04:23:19.687Z,62.10
2019-05-14T04:25:22.017Z,62.05
2019-05-14T04:27:29.806Z,62.00
2019-05-14T04:29:34.986Z,62.16
2019-05-14T04:31:42.367Z,61.95
2019-05-14T04:33:50.074Z,61.95
2019-05-14T04:35:53.624Z,61.86
2019-05-14T04:37:58.897Z,61.85
2019-05-14T04:40:10.041Z,61.78
2019-05-14T04:42:13.245Z,61.80
2019-05-14T04:44:19.389Z,61.79
2019-05-14T04:46:23.904Z,61.84
2019-05-14T04:48:37.294Z,61.95
2019-05-14T04:50:40.240Z,61.99
2019-05-14T04:52:43.002Z,61.98
2019-05-14T04:54:49.970Z,62.09
2019-05-14T04:56:59.691Z,62.21
2019-05-14T04:59:03.529Z,62.34
2019-05-14T05:01:09.921Z,62.47
2019-05-14T05:03:13.843Z,62.46
2019-05-14T05:05:19.590Z,62.41
2019-05-14T05:11:31.394Z,62.15
2019-05-14T05:14:08.749Z,62.07
2019-05-14T05:17:44.083Z,62.04
2019-05-14T05:19:39.903Z,62.01
2019-05-14T05:21:58.697Z,61.95
2019-05-14T05:36:48.521Z,61.71
2019-05-14T05:41:55.502Z,61.55
2019-05-14T05:44:15.179Z,61.30
2019-05-14T05:47:18.526Z,61.06
2019-05-14T05:49:25.777Z,61.06
2019-05-14T05:51:31.420Z,60.85
2019-05-14T05:53:39.047Z,60.79
2019-05-14T05:56:04.434Z,60.11
2019-05-14T05:58:19.687Z,59.25
2019-05-14T06:00:39.835Z,58.47
2019-05-14T06:03:13.649Z,57.82
2019-05-14T06:05:22.159Z,56.95
2019-05-14T06:08:23.201Z,56.15
2019-05-14T06:10:41.283Z,55.61
2019-05-14T06:12:49.207Z,54.78
2019-05-14T06:15:43.901Z,54.75
2019-05-14T06:18:09.349Z,54.19
2019-05-14T06:20:23.824Z,53.42
2019-05-14T06:22:29.622Z,52.94
2019-05-14T06:24:38.873Z,52.43
2019-05-14T06:27:03.017Z,52.15
2019-05-14T06:29:25.374Z,51.63
2019-05-14T06:31:32.502Z,51.48
2019-05-14T06:33:48.400Z,51.17
2019-05-14T06:36:33.869Z,51.10
2019-05-14T06:38:40.853Z,50.88
2019-05-14T06:41:21.336Z,50.72
2019-05-14T06:43:53.685Z,50.13
2019-05-14T06:46:44.476Z,48.89
2019-05-14T06:50:08.411Z,47.82
2019-05-14T06:52:09.969Z,47.65
2019-05-14T06:54:21.855Z,47.40
2019-05-14T06:56:28.387Z,46.74
2019-05-14T06:58:58.485Z,46.15
2019-05-14T07:04:40.493Z,45.63
2019-05-14T07:07:04.302Z,44.78
2019-05-14T07:09:18.550Z,43.89
2019-05-14T07:11:49.204Z,43.87
2019-05-14T07:14:15.212Z,43.51
2019-05-14T07:16:28.476Z,43.07
2019-05-14T07:18:45.418Z,42.17
2019-05-14T07:20:48.666Z,41.85
2019-05-14T07:22:58.691Z,41.09
2019-05-14T07:25:03.419Z,41.49
2019-05-14T07:31:18.604Z,41.17
2019-05-14T07:33:33.630Z,40.70
2019-05-14T07:35:48.965Z,39.63
2019-05-14T07:38:00.829Z,39.10
2019-05-14T07:40:30.698Z,38.65
2019-05-14T07:42:40.312Z,38.17
2019-05-14T07:45:38.760Z,36.92
2019-05-14T07:48:09.757Z,37.21
2019-05-14T07:50:29.082Z,36.45
2019-05-14T07:52:50.246Z,36.01
2019-05-14T07:55:40.293Z,36.08
2019-05-14T07:58:52.438Z,35.35
2019-05-14T08:01:33.606Z,35.59
2019-05-14T08:04:28.846Z,35.59
2019-05-14T08:10:28.936Z,33.88
2019-05-14T08:16:08.779Z,34.34
2019-05-14T08:18:35.974Z,33.01
2019-05-14T08:20:53.166Z,32.06
2019-05-14T08:23:33.475Z,31.79
2019-05-14T08:25:48.149Z,31.87
2019-05-14T08:28:29.180Z,31.96
2019-05-14T08:30:49.083Z,30.95
2019-05-14T08:33:08.785Z,31.31
2019-05-14T08:35:34.120Z,31.36
2019-05-14T08:37:42.409Z,30.67
2019-05-14T08:42:42.073Z,30.87
2019-05-14T08:45:14.463Z,31.19
2019-05-14T08:47:44.163Z,31.88
2019-05-14T08:50:02.373Z,32.13
2019-05-14T08:52:35.055Z,31.75
2019-05-14T08:54:46.211Z,31.92
2019-05-14T08:57:38.852Z,32.43
2019-05-14T09:00:14.528Z,32.64
2019-05-14T09:02:35.668Z,32.98
2019-05-14T09:04:55.374Z,33.00
2019-05-14T09:07:03.079Z,33.42
2019-05-14T09:09:48.807Z,33.72
2019-05-14T09:12:00.780Z,33.80
2019-05-14T09:14:19.674Z,34.14
2019-05-14T09:16:46.032Z,34.41
2019-05-14T09:18:45.316Z,34.26
2019-05-14T09:21:10.823Z,33.43
2019-05-14T09:23:21.201Z,32.56
2019-05-14T09:25:31.122Z,32.84
2019-05-14T09:28:01.740Z,32.26
2019-05-14T09:30:11.630Z,32.19
2019-05-14T09:32:24.178Z,32.08
2019-05-14T09:34:51.035Z,32.00
2019-05-14T09:37:08.791Z,31.99
2019-05-14T09:39:31.221Z,32.36
2019-05-14T09:41:52.706Z,32.74
2019-05-14T09:44:13.445Z,33.24
2019-05-14T09:46:23.283Z,33.64
2019-05-14T09:48:41.276Z,33.57
2019-05-14T09:50:51.708Z,33.53
2019-05-14T09:53:23.264Z,32.91
2019-05-14T09:55:25.041Z,32.66
2019-05-14T09:57:41.805Z,32.87
2019-05-14T09:59:52.998Z,31.76
2019-05-14T10:02:09.146Z,31.64
2019-05-14T10:04:13.777Z,31.90
2019-05-14T10:06:31.102Z,32.15
2019-05-14T10:08:45.242Z,32.18
2019-05-14T10:11:00.214Z,32.24
2019-05-14T10:13:23.381Z,32.30
2019-05-14T10:15:39.884Z,32.30
2019-05-14T10:17:44.938Z,31.61
2019-05-14T10:20:09.127Z,31.68
2019-05-14T10:22:22.003Z,30.68
2019-05-14T10:24:40.014Z,30.08
2019-05-14T10:27:28.456Z,28.87
2019-05-14T10:29:33.831Z,29.04
2019-05-14T10:31:48.545Z,29.32
2019-05-14T10:34:13.025Z,30.05
2019-05-14T10:36:37.883Z,30.37
2019-05-14T10:38:50.524Z,30.53
2019-05-14T10:41:05.893Z,29.84
2019-05-14T10:43:43.812Z,29.87
2019-05-14T10:45:59.357Z,30.20
2019-05-14T10:48:09.699Z,29.88
2019-05-14T10:50:22.397Z,29.67
2019-05-14T10:52:39.519Z,30.05
2019-05-14T10:54:59.443Z,30.39
2019-05-14T10:57:10.004Z,30.82
2019-05-14T10:59:33.116Z,30.61
2019-05-14T11:01:52.954Z,30.37
2019-05-14T11:04:07.771Z,30.04
2019-05-14T11:09:32.633Z,29.42
2019-05-14T11:11:39.533Z,29.31
2019-05-14T11:13:55.788Z,29.86
2019-05-14T11:16:08.569Z,30.30
2019-05-14T11:18:19.940Z,30.76
2019-05-14T11:20:31.219Z,30.59
2019-05-14T11:22:58.443Z,30.08
2019-05-14T11:25:20.736Z,29.61
2019-05-14T11:27:29.926Z,29.07
2019-05-14T11:29:39.496Z,29.15
2019-05-14T11:31:56.899Z,29.10
2019-05-14T11:34:10.633Z,28.09
2019-05-14T11:36:23.759Z,28.33
2019-05-14T11:38:36.929Z,27.90
2019-05-14T11:40:49.292Z,27.53
2019-05-14T11:43:04.222Z,27.44
2019-05-14T11:45:27.353Z,27.51
2019-05-14T11:47:43.092Z,27.90
2019-05-14T11:50:04.816Z,28.18
2019-05-14T11:52:23.280Z,28.45
2019-05-14T11:54:30.446Z,28.33
2019-05-14T11:56:50.092Z,28.45
2019-05-14T11:59:08.734Z,28.10
2019-05-14T12:01:20.639Z,27.84
2019-05-14T12:03:28.609Z,28.08
2019-05-14T12:05:49.541Z,27.72
2019-05-14T12:08:09.696Z,27.33
2019-05-14T12:13:19.212Z,28.11
2019-05-14T12:15:23.092Z,28.30
2019-05-14T12:17:29.462Z,27.65
2019-05-14T12:19:33.444Z,27.78
2019-05-14T12:21:39.741Z,27.89
2019-05-14T12:23:43.590Z,27.39
2019-05-14T12:25:49.131Z,27.27
2019-05-14T12:27:53.549Z,26.85
2019-05-14T12:29:59.891Z,26.72
2019-05-14T12:32:03.233Z,27.21
2019-05-14T12:34:07.426Z,27.38
2019-05-14T12:36:11.621Z,27.79
2019-05-14T12:38:18.547Z,27.42
2019-05-14T12:40:24.071Z,27.35
2019-05-14T12:42:29.665Z,27.79
2019-05-14T12:44:37.207Z,27.77
2019-05-14T12:46:39.942Z,27.62
2019-05-14T12:48:44.033Z,27.85
2019-05-14T12:50:49.030Z,27.67
2019-05-14T12:52:54.239Z,27.37
2019-05-14T12:54:59.759Z,27.38
2019-05-14T12:57:04.192Z,27.30
2019-05-14T12:59:08.559Z,27.55
2019-05-14T13:01:12.612Z,27.24
2019-05-14T13:03:22.442Z,27.29
2019-05-14T13:05:29.223Z,27.35
2019-05-14T13:07:34.475Z,27.85
2019-05-14T13:09:41.507Z,28.31
2019-05-14T13:11:47.882Z,28.05
2019-05-14T13:13:58.322Z,27.38
2019-05-14T13:16:04.320Z,26.79
2019-05-14T13:18:08.804Z,26.71
2019-05-14T13:20:14.083Z,27.00
2019-05-14T13:22:30.249Z,27.22
2019-05-14T13:24:30.096Z,27.65
2019-05-14T13:26:35.324Z,28.00
2019-05-14T13:28:40.249Z,28.09
2019-05-14T13:30:44.857Z,28.25
2019-05-14T13:32:49.319Z,28.59
2019-05-14T13:35:02.410Z,28.85
2019-05-14T13:37:06.622Z,29.00
2019-05-14T13:39:11.078Z,29.37
2019-05-14T13:41:15.067Z,29.49
2019-05-14T13:43:19.355Z,29.82
2019-05-14T13:45:25.719Z,29.86
2019-05-14T13:47:30.042Z,29.51
2019-05-14T13:49:34.392Z,29.67
2019-05-14T13:51:38.946Z,29.69
2019-05-14T13:53:42.896Z,29.57
2019-05-14T13:55:56.555Z,30.23
2019-05-14T13:57:53.319Z,30.24
2019-05-14T13:59:58.987Z,29.68
2019-05-14T14:02:03.323Z,29.73
2019-05-14T14:04:14.299Z,29.88
2019-05-14T14:06:13.491Z,29.91
2019-05-14T14:08:19.328Z,29.31
2019-05-14T14:10:25.111Z,29.21
2019-05-14T14:12:32.521Z,29.40
2019-05-14T14:14:39.120Z,30.29
2019-05-14T14:16:44.184Z,30.57
2019-05-14T14:18:50.037Z,30.55
2019-05-14T14:20:54.594Z,30.10
2019-05-14T14:23:09.141Z,29.96
2019-05-14T14:25:08.622Z,29.63
2019-05-14T14:27:11.717Z,30.04
2019-05-14T14:29:19.928Z,29.87
2019-05-14T14:31:24.239Z,29.50
2019-05-14T14:33:28.997Z,29.55
2019-05-14T14:35:33.866Z,29.72
2019-05-14T14:37:39.632Z,29.73
2019-05-14T14:39:48.839Z,29.98
2019-05-14T14:41:53.327Z,30.18
2019-05-14T15:35:48.695Z,29.17
2019-05-14T15:37:51.759Z,30.26
2019-05-14T15:39:55.948Z,30.89
2019-05-14T15:42:13.248Z,31.33
2019-05-14T15:44:12.949Z,31.47
2019-05-14T15:46:18.492Z,31.60
2019-05-14T15:48:23.075Z,31.94
2019-05-14T15:50:32.467Z,31.85
2019-05-14T15:52:39.976Z,31.92
2019-05-14T15:54:47.372Z,32.28
2019-05-14T15:56:50.479Z,32.56
2019-05-14T15:58:54.478Z,32.78
2019-05-14T16:01:01.329Z,32.59
2019-05-14T16:03:18.657Z,31.87
2019-05-14T16:05:22.306Z,31.04
2019-05-14T16:07:29.637Z,30.34
2019-05-14T16:09:34.171Z,30.10
2019-05-14T16:11:39.353Z,30.06
2019-05-14T16:13:44.900Z,30.34
2019-05-14T16:15:49.249Z,30.78
2019-05-14T16:18:05.728Z,31.42
2019-05-14T16:19:59.588Z,32.12
2019-05-14T16:22:03.614Z,33.08
2019-05-14T16:24:13.892Z,33.98
2019-05-14T16:26:18.797Z,34.75
2019-05-14T16:28:23.311Z,34.36
2019-05-14T16:30:28.930Z,34.00
2019-05-14T16:32:33.190Z,34.30
2019-05-14T16:34:41.029Z,34.58
2019-05-14T16:36:42.981Z,34.77
2019-05-14T16:38:48.366Z,34.45
2019-05-14T16:40:52.760Z,34.62
2019-05-14T16:42:58.984Z,35.07
2019-05-14T16:45:02.781Z,35.25
2019-05-14T16:47:25.387Z,35.50
2019-05-14T16:49:30.168Z,35.60
2019-05-14T16:51:35.504Z,35.66
2019-05-14T16:53:41.287Z,35.37
2019-05-14T16:55:45.216Z,35.22
2019-05-14T16:57:50.435Z,35.32
2019-05-14T16:59:54.574Z,35.41
2019-05-14T17:02:00.661Z,35.50
2019-05-14T17:04:04.766Z,35.56
2019-05-14T17:06:08.936Z,35.62
2019-05-14T17:08:13.469Z,35.49
2019-05-14T17:10:18.241Z,35.43
2019-05-14T17:12:23.754Z,35.58
2019-05-14T17:14:29.125Z,35.80
2019-05-14T17:16:37.511Z,35.94
2019-05-14T17:18:44.470Z,36.63
2019-05-14T17:20:49.864Z,37.75
2019-05-14T17:22:54.175Z,38.42
2019-05-14T17:25:01.050Z,39.29
2019-05-14T17:27:05.340Z,39.73
2019-05-14T17:29:10.533Z,40.17
2019-05-14T17:31:15.030Z,40.44
2019-05-14T17:33:21.767Z,41.00
2019-05-14T17:35:29.604Z,41.04
2019-05-14T17:37:33.488Z,41.30
2019-05-14T17:39:38.777Z,41.12
2019-05-14T17:41:44.092Z,41.07
2019-05-14T17:43:52.011Z,41.10
2019-05-14T17:45:58.753Z,41.01
2019-05-14T17:48:02.668Z,40.89
2019-05-14T17:50:07.731Z,40.97
2019-05-14T17:52:12.202Z,41.15
2019-05-14T17:54:18.571Z,41.54
2019-05-14T17:56:23.461Z,41.59
2019-05-14T17:58:28.735Z,41.24
2019-05-14T18:00:34.607Z,40.99
2019-05-14T18:02:38.927Z,40.75
2019-05-14T18:04:48.989Z,40.92
2019-05-14T18:06:53.061Z,40.99
2019-05-14T18:08:59.820Z,41.13
2019-05-14T18:11:04.291Z,41.28
2019-05-14T18:13:10.986Z,41.18
2019-05-14T18:15:15.584Z,41.11
2019-05-14T18:17:19.779Z,41.08
2019-05-14T18:19:23.965Z,40.95
2019-05-14T18:21:28.685Z,40.87
2019-05-14T18:23:32.904Z,40.77
2019-05-14T18:25:38.917Z,40.98
2019-05-14T18:27:43.209Z,41.12
2019-05-14T18:29:48.867Z,41.05
2019-05-14T18:31:54.821Z,41.10
2019-05-14T18:33:59.307Z,41.19
2019-05-14T18:36:04.713Z,41.42
2019-05-14T18:38:09.143Z,41.61
2019-05-14T18:40:13.542Z,41.73
2019-05-14T18:42:19.009Z,41.93
2019-05-14T18:44:28.444Z,42.01
2019-05-14T18:46:33.154Z,42.33
2019-05-14T18:48:37.590Z,42.31
2019-05-14T18:50:42.033Z,42.33
2019-05-14T18:52:48.480Z,42.37
2019-05-14T18:54:59.028Z,42.54
2019-05-14T18:57:12.199Z,42.78
2019-05-14T18:59:21.438Z,42.93
2019-05-14T19:01:25.136Z,43.13
2019-05-14T19:03:30.698Z,43.18
2019-05-14T19:05:38.192Z,43.19
2019-05-14T19:07:45.528Z,43.34
2019-05-14T19:09:50.289Z,43.54
2019-05-14T19:11:58.801Z,43.78
2019-05-14T19:14:03.437Z,43.97
2019-05-14T19:16:08.337Z,43.99
2019-05-14T19:18:14.158Z,44.15
2019-05-14T19:20:19.870Z,44.41
2019-05-14T19:22:28.875Z,44.52
2019-05-14T19:24:33.397Z,44.48
2019-05-14T19:26:41.042Z,44.60
2019-05-14T19:28:48.599Z,44.72
2019-05-14T19:31:57.480Z,44.83
2019-05-14T19:36:28.102Z,45.20
2019-05-14T19:38:31.552Z,45.41
2019-05-14T19:40:35.824Z,45.53
2019-05-14T19:42:40.344Z,45.70
2019-05-14T19:44:45.001Z,45.90
2019-05-14T19:46:49.419Z,45.79
2019-05-14T19:48:53.763Z,45.91
2019-05-14T19:50:58.515Z,46.01
2019-05-14T19:53:03.223Z,46.35
2019-05-14T19:55:08.006Z,46.66
2019-05-14T19:57:12.484Z,46.94
2019-05-14T19:59:20.505Z,46.94
2019-05-14T20:01:25.230Z,47.01
2019-05-14T20:03:30.665Z,47.16
2019-05-14T20:05:34.990Z,47.51
2019-05-14T20:07:43.833Z,47.60
2019-05-14T20:09:48.405Z,47.80
2019-05-14T20:11:53.304Z,48.15
2019-05-14T20:13:59.112Z,47.99
2019-05-14T20:16:04.005Z,48.12
2019-05-14T20:18:08.969Z,48.19
2019-05-14T20:20:19.359Z,48.23
2019-05-14T20:22:28.362Z,48.39
2019-05-14T20:24:35.454Z,48.42
2019-05-14T20:26:41.262Z,48.43
2019-05-14T20:28:48.553Z,48.50
2019-05-14T20:30:59.628Z,48.53
2019-05-14T20:33:08.580Z,48.63
2019-05-14T20:35:27.489Z,48.72
2019-05-14T20:37:19.499Z,48.73
2019-05-14T20:39:23.581Z,48.81
2019-05-14T20:41:28.718Z,48.91
2019-05-14T20:43:38.539Z,49.02
2019-05-14T20:45:44.479Z,49.14
2019-05-14T20:47:50.352Z,49.23
2019-05-14T20:49:57.948Z,49.31
2019-05-14T20:52:03.113Z,49.35
2019-05-14T20:54:08.934Z,49.64
2019-05-14T20:56:13.383Z,49.62
2019-05-14T20:58:19.956Z,49.59
2019-05-14T21:00:23.575Z,49.78
2019-05-14T21:02:31.334Z,49.98
2019-05-14T21:04:36.693Z,50.13
2019-05-14T21:06:40.840Z,50.22
2019-05-14T21:08:45.273Z,50.55
2019-05-14T21:10:49.638Z,50.72
2019-05-14T21:12:53.671Z,51.08
2019-05-14T21:14:59.119Z,51.80
2019-05-14T21:17:05.680Z,52.14
2019-05-14T21:19:09.792Z,52.21
2019-05-14T21:21:14.344Z,52.36
2019-05-14T21:23:19.025Z,52.40
2019-05-14T21:25:29.577Z,52.52
2019-05-14T21:27:48.447Z,52.61
2019-05-14T21:29:48.959Z,52.72
2019-05-14T21:31:53.463Z,52.72
2019-05-14T21:33:58.632Z,52.84
2019-05-14T21:36:09.518Z,52.91
2019-05-14T21:38:16.361Z,53.20
2019-05-14T21:40:31.653Z,53.47
2019-05-14T21:42:34.016Z,53.84
2019-05-14T21:44:40.963Z,53.96
2019-05-14T21:46:45.138Z,54.09
2019-05-14T21:48:52.662Z,54.41
2019-05-14T21:51:00.505Z,54.67
2019-05-14T21:53:02.773Z,54.81
2019-05-14T21:55:10.704Z,54.95
2019-05-14T21:57:21.223Z,54.91
2019-05-14T21:59:28.215Z,54.93
2019-05-14T22:01:33.408Z,55.07
2019-05-14T22:03:40.267Z,55.17
2019-05-14T22:05:48.252Z,55.33
2019-05-14T22:07:55.287Z,55.45
2019-05-14T22:10:01.897Z,55.56
2019-05-14T22:12:07.785Z,55.77
2019-05-14T22:14:12.376Z,56.03
2019-05-14T22:16:19.708Z,56.24
2019-05-14T22:18:24.279Z,56.18
2019-05-14T22:20:43.993Z,55.97
2019-05-14T22:22:51.259Z,56.16
2019-05-14T22:24:55.524Z,56.25
2019-05-14T22:26:59.702Z,56.42
2019-05-14T22:29:05.139Z,56.54
2019-05-14T22:31:09.742Z,56.54
2019-05-14T22:33:14.019Z,56.70
2019-05-14T22:35:18.748Z,56.66
2019-05-14T22:37:22.958Z,56.56
2019-05-14T22:39:30.620Z,56.62
2019-05-14T22:41:34.681Z,56.81
2019-05-14T22:43:38.961Z,57.04
2019-05-14T22:45:43.346Z,57.00
2019-05-14T22:47:49.020Z,57.24
2019-05-14T22:49:53.405Z,57.28
2019-05-14T22:51:58.848Z,57.34
2019-05-14T22:54:03.223Z,57.51
2019-05-14T22:56:08.297Z,57.83
2019-05-14T22:58:24.726Z,58.02
2019-05-14T23:00:20.926Z,58.21
2019-05-14T23:02:24.006Z,58.32
2019-05-14T23:04:28.993Z,58.36
2019-05-14T23:06:33.245Z,58.44
2019-05-14T23:08:39.253Z,58.37
2019-05-14T23:10:45.518Z,58.36
2019-05-14T23:12:49.621Z,58.43
2019-05-14T23:14:53.545Z,58.48
2019-05-14T23:16:57.859Z,58.50
2019-05-14T23:19:02.010Z,58.71
2019-05-14T23:21:08.606Z,58.85
2019-05-14T23:23:11.785Z,58.92
2019-05-14T23:25:18.256Z,59.63
2019-05-14T23:27:21.627Z,59.22
2019-05-14T23:29:28.786Z,59.75
2019-05-14T23:31:31.755Z,59.58
2019-05-14T23:33:38.854Z,59.70
2019-05-14T23:35:43.575Z,59.63
2019-05-14T23:37:48.837Z,59.61
2019-05-14T23:39:53.387Z,59.80
2019-05-14T23:41:58.306Z,59.88
2019-05-14T23:44:02.456Z,59.64
2019-05-14T23:46:06.433Z,59.58
2019-05-14T23:48:10.618Z,59.38
2019-05-14T23:50:14.771Z,59.35
2019-05-14T23:52:19.338Z,59.30
2019-05-14T23:54:23.861Z,59.47
2019-05-14T23:56:28.814Z,59.41
2019-05-14T23:58:33.187Z,59.53
